sensor_id;sensor_type;location;lat;lon;timestamp;P1;durP1;ratioP1;P2;durP2;ratioP2
52854;SDS011;38719;51.418;7.286;2022-08-27T00:01:19;7.80;;;5.55;;
52854;SDS011;38719;51.418;7.286;2022-08-27T00:03:48;8.38;;;5.50;;
52854;SDS011;38719;51.418;7.286;2022-08-27T00:06:17;9.25;;;5.10;;
52854;SDS011;38719;51.418;7.286;2022-08-27T00:08:46;6.53;;;5.15;;
52854;SDS011;38719;51.418;7.286;2022-08-27T00:11:16;10.75;;;5.93;;
52854;SDS011;38719;51.418;7.286;2022-08-27T00:13:46;9.35;;;5.45;;
52854;SDS011;38719;51.418;7.286;2022-08-27T00:16:15;5.93;;;5.32;;
52854;SDS011;38719;51.418;7.286;2022-08-27T00:18:44;7.13;;;5.20;;
52854;SDS011;38719;51.418;7.286;2022-08-27T00:21:13;11.40;;;5.90;;
52854;SDS011;38719;51.418;7.286;2022-08-27T00:23:41;6.15;;;5.03;;
52854;SDS011;38719;51.418;7.286;2022-08-27T00:26:09;7.55;;;5.57;;
52854;SDS011;38719;51.418;7.286;2022-08-27T00:28:39;11.05;;;5.88;;
52854;SDS011;38719;51.418;7.286;2022-08-27T00:31:07;11.45;;;5.80;;
52854;SDS011;38719;51.418;7.286;2022-08-27T00:33:37;9.10;;;6.35;;
52854;SDS011;38719;51.418;7.286;2022-08-27T00:36:05;7.35;;;6.18;;
52854;SDS011;38719;51.418;7.286;2022-08-27T00:38:33;10.75;;;7.05;;
52854;SDS011;38719;51.418;7.286;2022-08-27T00:41:01;6.90;;;6.07;;
52854;SDS011;38719;51.418;7.286;2022-08-27T00:43:31;7.80;;;5.85;;
52854;SDS011;38719;51.418;7.286;2022-08-27T00:46:13;6.68;;;5.90;;
52854;SDS011;38719;51.418;7.286;2022-08-27T00:48:45;10.25;;;6.15;;
52854;SDS011;38719;51.418;7.286;2022-08-27T00:51:15;9.27;;;5.63;;
52854;SDS011;38719;51.418;7.286;2022-08-27T00:53:43;6.63;;;5.15;;
52854;SDS011;38719;51.418;7.286;2022-08-27T00:56:11;9.32;;;5.30;;
52854;SDS011;38719;51.418;7.286;2022-08-27T00:58:41;7.88;;;5.53;;
52854;SDS011;38719;51.418;7.286;2022-08-27T01:01:14;8.05;;;5.40;;
52854;SDS011;38719;51.418;7.286;2022-08-27T01:03:45;7.93;;;5.43;;
52854;SDS011;38719;51.418;7.286;2022-08-27T01:06:15;11.10;;;6.50;;
52854;SDS011;38719;51.418;7.286;2022-08-27T01:08:49;7.15;;;5.85;;
52854;SDS011;38719;51.418;7.286;2022-08-27T01:11:20;7.15;;;5.50;;
52854;SDS011;38719;51.418;7.286;2022-08-27T01:13:48;8.60;;;5.97;;
52854;SDS011;38719;51.418;7.286;2022-08-27T01:16:28;9.63;;;5.35;;
52854;SDS011;38719;51.418;7.286;2022-08-27T01:19:01;8.60;;;5.60;;
52854;SDS011;38719;51.418;7.286;2022-08-27T01:21:33;7.40;;;5.07;;
52854;SDS011;38719;51.418;7.286;2022-08-27T01:24:08;11.07;;;5.85;;
52854;SDS011;38719;51.418;7.286;2022-08-27T01:26:50;7.07;;;5.70;;
52854;SDS011;38719;51.418;7.286;2022-08-27T01:29:18;10.00;;;5.65;;
52854;SDS011;38719;51.418;7.286;2022-08-27T01:31:46;9.98;;;6.50;;
52854;SDS011;38719;51.418;7.286;2022-08-27T01:34:14;10.75;;;6.10;;
52854;SDS011;38719;51.418;7.286;2022-08-27T01:36:42;9.85;;;5.95;;
52854;SDS011;38719;51.418;7.286;2022-08-27T01:39:09;11.95;;;6.72;;
52854;SDS011;38719;51.418;7.286;2022-08-27T01:41:39;7.75;;;6.00;;
52854;SDS011;38719;51.418;7.286;2022-08-27T01:44:07;9.15;;;5.60;;
52854;SDS011;38719;51.418;7.286;2022-08-27T01:46:34;7.18;;;5.82;;
52854;SDS011;38719;51.418;7.286;2022-08-27T01:49:02;10.98;;;6.60;;
52854;SDS011;38719;51.418;7.286;2022-08-27T01:51:30;8.98;;;5.75;;
52854;SDS011;38719;51.418;7.286;2022-08-27T01:53:57;8.52;;;5.50;;
52854;SDS011;38719;51.418;7.286;2022-08-27T01:56:25;8.93;;;6.10;;
52854;SDS011;38719;51.418;7.286;2022-08-27T01:58:54;8.23;;;6.68;;
52854;SDS011;38719;51.418;7.286;2022-08-27T02:01:22;7.10;;;6.03;;
52854;SDS011;38719;51.418;7.286;2022-08-27T02:03:50;9.02;;;6.82;;
52854;SDS011;38719;51.418;7.286;2022-08-27T02:06:17;10.60;;;6.75;;
52854;SDS011;38719;51.418;7.286;2022-08-27T02:08:45;10.48;;;7.63;;
52854;SDS011;38719;51.418;7.286;2022-08-27T02:11:12;11.57;;;7.30;;
52854;SDS011;38719;51.418;7.286;2022-08-27T02:13:40;10.25;;;6.95;;
52854;SDS011;38719;51.418;7.286;2022-08-27T02:16:09;8.55;;;7.15;;
52854;SDS011;38719;51.418;7.286;2022-08-27T02:18:36;9.93;;;6.25;;
52854;SDS011;38719;51.418;7.286;2022-08-27T02:21:07;11.18;;;5.85;;
52854;SDS011;38719;51.418;7.286;2022-08-27T02:23:35;9.20;;;5.55;;
52854;SDS011;38719;51.418;7.286;2022-08-27T02:26:03;7.78;;;5.82;;
52854;SDS011;38719;51.418;7.286;2022-08-27T02:28:31;12.45;;;6.47;;
52854;SDS011;38719;51.418;7.286;2022-08-27T02:31:00;9.98;;;5.65;;
52854;SDS011;38719;51.418;7.286;2022-08-27T02:33:29;10.52;;;6.40;;
52854;SDS011;38719;51.418;7.286;2022-08-27T02:35:58;7.65;;;6.32;;
52854;SDS011;38719;51.418;7.286;2022-08-27T02:38:27;10.55;;;7.10;;
52854;SDS011;38719;51.418;7.286;2022-08-27T02:40:57;10.25;;;6.53;;
52854;SDS011;38719;51.418;7.286;2022-08-27T02:43:25;17.20;;;7.63;;
52854;SDS011;38719;51.418;7.286;2022-08-27T02:45:53;10.68;;;6.95;;
52854;SDS011;38719;51.418;7.286;2022-08-27T02:48:21;10.68;;;6.75;;
52854;SDS011;38719;51.418;7.286;2022-08-27T02:50:51;11.88;;;6.80;;
52854;SDS011;38719;51.418;7.286;2022-08-27T02:53:18;8.52;;;6.63;;
52854;SDS011;38719;51.418;7.286;2022-08-27T02:55:49;14.25;;;6.82;;
52854;SDS011;38719;51.418;7.286;2022-08-27T02:58:17;13.90;;;6.90;;
52854;SDS011;38719;51.418;7.286;2022-08-27T03:00:44;11.05;;;7.18;;
52854;SDS011;38719;51.418;7.286;2022-08-27T03:03:12;12.35;;;6.22;;
52854;SDS011;38719;51.418;7.286;2022-08-27T03:05:40;13.70;;;7.10;;
52854;SDS011;38719;51.418;7.286;2022-08-27T03:08:09;17.30;;;7.18;;
52854;SDS011;38719;51.418;7.286;2022-08-27T03:10:37;13.20;;;6.50;;
52854;SDS011;38719;51.418;7.286;2022-08-27T03:13:06;11.40;;;7.40;;
52854;SDS011;38719;51.418;7.286;2022-08-27T03:15:33;9.98;;;6.50;;
52854;SDS011;38719;51.418;7.286;2022-08-27T03:18:01;10.13;;;6.70;;
52854;SDS011;38719;51.418;7.286;2022-08-27T03:20:44;12.18;;;6.50;;
52854;SDS011;38719;51.418;7.286;2022-08-27T03:23:16;13.10;;;7.07;;
52854;SDS011;38719;51.418;7.286;2022-08-27T03:25:45;11.90;;;6.50;;
52854;SDS011;38719;51.418;7.286;2022-08-27T03:28:16;11.23;;;6.93;;
52854;SDS011;38719;51.418;7.286;2022-08-27T03:30:48;10.70;;;6.53;;
52854;SDS011;38719;51.418;7.286;2022-08-27T03:33:18;12.88;;;5.55;;
52854;SDS011;38719;51.418;7.286;2022-08-27T03:35:46;13.35;;;5.78;;
52854;SDS011;38719;51.418;7.286;2022-08-27T03:38:19;13.57;;;5.63;;
52854;SDS011;38719;51.418;7.286;2022-08-27T03:40:47;13.85;;;6.65;;
52854;SDS011;38719;51.418;7.286;2022-08-27T03:43:16;10.60;;;5.88;;
52854;SDS011;38719;51.418;7.286;2022-08-27T03:45:46;11.75;;;6.35;;
52854;SDS011;38719;51.418;7.286;2022-08-27T03:48:27;12.52;;;6.15;;
52854;SDS011;38719;51.418;7.286;2022-08-27T03:50:55;11.50;;;7.22;;
52854;SDS011;38719;51.418;7.286;2022-08-27T03:53:23;14.13;;;6.20;;
52854;SDS011;38719;51.418;7.286;2022-08-27T03:55:51;15.18;;;5.60;;
52854;SDS011;38719;51.418;7.286;2022-08-27T03:58:19;8.18;;;5.88;;
52854;SDS011;38719;51.418;7.286;2022-08-27T04:00:46;10.77;;;5.68;;
52854;SDS011;38719;51.418;7.286;2022-08-27T04:03:14;10.50;;;6.22;;
52854;SDS011;38719;51.418;7.286;2022-08-27T04:05:42;16.65;;;7.05;;
52854;SDS011;38719;51.418;7.286;2022-08-27T04:08:10;10.30;;;5.75;;
52854;SDS011;38719;51.418;7.286;2022-08-27T04:10:40;10.10;;;5.97;;
52854;SDS011;38719;51.418;7.286;2022-08-27T04:13:08;13.90;;;5.72;;
52854;SDS011;38719;51.418;7.286;2022-08-27T04:15:35;16.63;;;6.43;;
52854;SDS011;38719;51.418;7.286;2022-08-27T04:18:06;7.80;;;5.57;;
52854;SDS011;38719;51.418;7.286;2022-08-27T04:20:33;11.25;;;5.35;;
52854;SDS011;38719;51.418;7.286;2022-08-27T04:23:02;10.60;;;5.40;;
52854;SDS011;38719;51.418;7.286;2022-08-27T04:25:29;11.85;;;5.38;;
52854;SDS011;38719;51.418;7.286;2022-08-27T04:27:58;12.50;;;5.93;;
52854;SDS011;38719;51.418;7.286;2022-08-27T04:30:26;7.32;;;4.80;;
52854;SDS011;38719;51.418;7.286;2022-08-27T04:32:53;13.98;;;6.30;;
52854;SDS011;38719;51.418;7.286;2022-08-27T04:35:21;6.15;;;5.03;;
52854;SDS011;38719;51.418;7.286;2022-08-27T04:37:49;10.23;;;5.55;;
52854;SDS011;38719;51.418;7.286;2022-08-27T04:40:16;8.88;;;5.60;;
52854;SDS011;38719;51.418;7.286;2022-08-27T04:42:44;8.60;;;4.85;;
52854;SDS011;38719;51.418;7.286;2022-08-27T04:45:13;16.27;;;5.55;;
52854;SDS011;38719;51.418;7.286;2022-08-27T04:47:41;9.02;;;4.93;;
52854;SDS011;38719;51.418;7.286;2022-08-27T04:50:08;11.63;;;5.32;;
52854;SDS011;38719;51.418;7.286;2022-08-27T04:52:38;12.88;;;5.55;;
52854;SDS011;38719;51.418;7.286;2022-08-27T04:55:07;11.82;;;5.13;;
52854;SDS011;38719;51.418;7.286;2022-08-27T04:57:35;12.63;;;5.10;;
52854;SDS011;38719;51.418;7.286;2022-08-27T05:00:03;11.48;;;4.75;;
52854;SDS011;38719;51.418;7.286;2022-08-27T05:02:34;7.53;;;5.45;;
52854;SDS011;38719;51.418;7.286;2022-08-27T05:05:02;9.40;;;4.53;;
52854;SDS011;38719;51.418;7.286;2022-08-27T05:07:30;10.55;;;4.95;;
52854;SDS011;38719;51.418;7.286;2022-08-27T05:09:57;8.30;;;4.70;;
52854;SDS011;38719;51.418;7.286;2022-08-27T05:12:25;11.40;;;5.15;;
52854;SDS011;38719;51.418;7.286;2022-08-27T05:14:53;8.15;;;4.90;;
52854;SDS011;38719;51.418;7.286;2022-08-27T05:17:20;9.95;;;4.32;;
52854;SDS011;38719;51.418;7.286;2022-08-27T05:19:49;9.73;;;4.70;;
52854;SDS011;38719;51.418;7.286;2022-08-27T05:22:17;8.50;;;4.57;;
52854;SDS011;38719;51.418;7.286;2022-08-27T05:24:44;8.85;;;4.50;;
52854;SDS011;38719;51.418;7.286;2022-08-27T05:27:15;11.45;;;4.57;;
52854;SDS011;38719;51.418;7.286;2022-08-27T05:29:43;7.60;;;4.05;;
52854;SDS011;38719;51.418;7.286;2022-08-27T05:32:10;8.35;;;4.38;;
52854;SDS011;38719;51.418;7.286;2022-08-27T05:34:38;10.05;;;4.25;;
52854;SDS011;38719;51.418;7.286;2022-08-27T05:37:07;7.50;;;4.15;;
52854;SDS011;38719;51.418;7.286;2022-08-27T05:39:34;8.60;;;4.00;;
52854;SDS011;38719;51.418;7.286;2022-08-27T05:42:02;10.02;;;4.28;;
52854;SDS011;38719;51.418;7.286;2022-08-27T05:44:30;15.27;;;4.25;;
52854;SDS011;38719;51.418;7.286;2022-08-27T05:47:07;6.35;;;4.20;;
52854;SDS011;38719;51.418;7.286;2022-08-27T05:49:35;9.50;;;3.80;;
52854;SDS011;38719;51.418;7.286;2022-08-27T05:52:06;10.77;;;3.92;;
52854;SDS011;38719;51.418;7.286;2022-08-27T05:54:36;11.10;;;4.25;;
52854;SDS011;38719;51.418;7.286;2022-08-27T05:57:05;8.10;;;3.95;;
52854;SDS011;38719;51.418;7.286;2022-08-27T05:59:33;6.55;;;3.90;;
52854;SDS011;38719;51.418;7.286;2022-08-27T06:02:30;9.10;;;3.92;;
52854;SDS011;38719;51.418;7.286;2022-08-27T06:05:02;9.00;;;4.30;;
52854;SDS011;38719;51.418;7.286;2022-08-27T06:07:32;9.90;;;3.65;;
52854;SDS011;38719;51.418;7.286;2022-08-27T06:10:01;12.02;;;4.30;;
52854;SDS011;38719;51.418;7.286;2022-08-27T06:12:31;12.32;;;4.35;;
52854;SDS011;38719;51.418;7.286;2022-08-27T06:14:59;9.40;;;3.92;;
52854;SDS011;38719;51.418;7.286;2022-08-27T06:17:27;6.45;;;3.70;;
52854;SDS011;38719;51.418;7.286;2022-08-27T06:19:55;6.97;;;4.03;;
52854;SDS011;38719;51.418;7.286;2022-08-27T06:22:23;15.77;;;4.05;;
52854;SDS011;38719;51.418;7.286;2022-08-27T06:24:52;8.20;;;3.78;;
52854;SDS011;38719;51.418;7.286;2022-08-27T06:27:20;8.85;;;3.53;;
52854;SDS011;38719;51.418;7.286;2022-08-27T06:29:47;10.05;;;4.68;;
52854;SDS011;38719;51.418;7.286;2022-08-27T06:32:15;7.57;;;3.63;;
52854;SDS011;38719;51.418;7.286;2022-08-27T06:34:43;8.45;;;3.40;;
52854;SDS011;38719;51.418;7.286;2022-08-27T06:37:10;5.28;;;3.70;;
52854;SDS011;38719;51.418;7.286;2022-08-27T06:39:38;11.73;;;3.65;;
52854;SDS011;38719;51.418;7.286;2022-08-27T06:42:08;11.02;;;3.63;;
52854;SDS011;38719;51.418;7.286;2022-08-27T06:44:43;5.83;;;3.27;;
52854;SDS011;38719;51.418;7.286;2022-08-27T06:47:15;9.00;;;3.60;;
52854;SDS011;38719;51.418;7.286;2022-08-27T06:49:56;7.53;;;3.50;;
52854;SDS011;38719;51.418;7.286;2022-08-27T06:52:26;15.23;;;4.05;;
52854;SDS011;38719;51.418;7.286;2022-08-27T06:55:01;7.85;;;3.58;;
52854;SDS011;38719;51.418;7.286;2022-08-27T06:57:51;7.25;;;3.90;;
52854;SDS011;38719;51.418;7.286;2022-08-27T07:00:24;10.05;;;3.88;;
52854;SDS011;38719;51.418;7.286;2022-08-27T07:02:54;7.63;;;3.53;;
52854;SDS011;38719;51.418;7.286;2022-08-27T07:05:22;9.18;;;3.53;;
52854;SDS011;38719;51.418;7.286;2022-08-27T07:08:00;9.50;;;3.67;;
52854;SDS011;38719;51.418;7.286;2022-08-27T07:10:45;15.43;;;3.85;;
52854;SDS011;38719;51.418;7.286;2022-08-27T07:13:38;9.00;;;3.70;;
52854;SDS011;38719;51.418;7.286;2022-08-27T07:16:31;8.80;;;3.78;;
52854;SDS011;38719;51.418;7.286;2022-08-27T07:19:02;7.68;;;3.75;;
52854;SDS011;38719;51.418;7.286;2022-08-27T07:21:51;9.98;;;3.97;;
52854;SDS011;38719;51.418;7.286;2022-08-27T07:24:22;13.07;;;3.97;;
52854;SDS011;38719;51.418;7.286;2022-08-27T07:26:58;7.68;;;3.20;;
52854;SDS011;38719;51.418;7.286;2022-08-27T07:29:35;9.88;;;3.50;;
52854;SDS011;38719;51.418;7.286;2022-08-27T07:32:04;6.68;;;3.25;;
52854;SDS011;38719;51.418;7.286;2022-08-27T07:34:34;5.07;;;3.10;;
52854;SDS011;38719;51.418;7.286;2022-08-27T07:37:09;10.57;;;3.38;;
52854;SDS011;38719;51.418;7.286;2022-08-27T07:39:39;7.10;;;3.13;;
52854;SDS011;38719;51.418;7.286;2022-08-27T07:42:15;4.72;;;2.97;;
52854;SDS011;38719;51.418;7.286;2022-08-27T07:45:09;14.10;;;3.30;;
52854;SDS011;38719;51.418;7.286;2022-08-27T07:47:39;5.45;;;2.95;;
52854;SDS011;38719;51.418;7.286;2022-08-27T07:50:07;7.57;;;3.13;;
52854;SDS011;38719;51.418;7.286;2022-08-27T07:52:36;9.77;;;3.20;;
52854;SDS011;38719;51.418;7.286;2022-08-27T07:55:04;7.80;;;3.33;;
52854;SDS011;38719;51.418;7.286;2022-08-27T07:57:32;6.72;;;3.20;;
52854;SDS011;38719;51.418;7.286;2022-08-27T08:00:00;9.20;;;3.30;;
52854;SDS011;38719;51.418;7.286;2022-08-27T08:02:29;8.85;;;3.38;;
52854;SDS011;38719;51.418;7.286;2022-08-27T08:04:57;9.38;;;3.42;;
52854;SDS011;38719;51.418;7.286;2022-08-27T08:07:24;7.10;;;3.60;;
52854;SDS011;38719;51.418;7.286;2022-08-27T08:09:52;8.30;;;3.30;;
52854;SDS011;38719;51.418;7.286;2022-08-27T08:12:19;11.20;;;3.20;;
52854;SDS011;38719;51.418;7.286;2022-08-27T08:14:51;9.68;;;3.78;;
52854;SDS011;38719;51.418;7.286;2022-08-27T08:17:22;6.18;;;2.88;;
52854;SDS011;38719;51.418;7.286;2022-08-27T08:19:52;7.82;;;3.53;;
52854;SDS011;38719;51.418;7.286;2022-08-27T08:22:42;6.85;;;3.47;;
52854;SDS011;38719;51.418;7.286;2022-08-27T08:25:09;7.75;;;3.85;;
52854;SDS011;38719;51.418;7.286;2022-08-27T08:27:39;5.38;;;3.40;;
52854;SDS011;38719;51.418;7.286;2022-08-27T08:30:07;6.88;;;3.58;;
52854;SDS011;38719;51.418;7.286;2022-08-27T08:32:36;5.88;;;3.10;;
52854;SDS011;38719;51.418;7.286;2022-08-27T08:35:05;8.35;;;3.25;;
52854;SDS011;38719;51.418;7.286;2022-08-27T08:37:33;7.35;;;3.20;;
52854;SDS011;38719;51.418;7.286;2022-08-27T08:40:02;11.15;;;3.35;;
52854;SDS011;38719;51.418;7.286;2022-08-27T08:42:31;9.07;;;3.17;;
52854;SDS011;38719;51.418;7.286;2022-08-27T08:45:03;8.27;;;3.42;;
52854;SDS011;38719;51.418;7.286;2022-08-27T08:47:37;6.70;;;2.90;;
52854;SDS011;38719;51.418;7.286;2022-08-27T08:50:12;10.05;;;3.65;;
52854;SDS011;38719;51.418;7.286;2022-08-27T08:52:48;7.93;;;3.00;;
52854;SDS011;38719;51.418;7.286;2022-08-27T08:55:27;7.28;;;3.50;;
52854;SDS011;38719;51.418;7.286;2022-08-27T08:58:05;11.85;;;3.45;;
52854;SDS011;38719;51.418;7.286;2022-08-27T09:00:38;5.75;;;2.80;;
52854;SDS011;38719;51.418;7.286;2022-08-27T09:03:08;9.68;;;3.47;;
52854;SDS011;38719;51.418;7.286;2022-08-27T09:05:40;6.35;;;3.20;;
52854;SDS011;38719;51.418;7.286;2022-08-27T09:08:12;6.07;;;3.10;;
52854;SDS011;38719;51.418;7.286;2022-08-27T09:11:04;9.27;;;3.10;;
52854;SDS011;38719;51.418;7.286;2022-08-27T09:13:36;8.80;;;3.22;;
52854;SDS011;38719;51.418;7.286;2022-08-27T09:16:08;7.82;;;3.10;;
52854;SDS011;38719;51.418;7.286;2022-08-27T09:18:37;10.05;;;2.88;;
52854;SDS011;38719;51.418;7.286;2022-08-27T09:21:19;11.45;;;3.25;;
52854;SDS011;38719;51.418;7.286;2022-08-27T09:23:55;6.53;;;2.80;;
52854;SDS011;38719;51.418;7.286;2022-08-27T09:26:31;9.02;;;2.90;;
52854;SDS011;38719;51.418;7.286;2022-08-27T09:29:03;9.40;;;3.25;;
52854;SDS011;38719;51.418;7.286;2022-08-27T09:31:46;5.28;;;2.75;;
52854;SDS011;38719;51.418;7.286;2022-08-27T09:36:49;6.93;;;3.85;;
52854;SDS011;38719;51.418;7.286;2022-08-27T09:39:24;9.18;;;2.90;;
52854;SDS011;38719;51.418;7.286;2022-08-27T09:42:01;6.28;;;2.50;;
52854;SDS011;38719;51.418;7.286;2022-08-27T09:44:30;8.75;;;2.50;;
52854;SDS011;38719;51.418;7.286;2022-08-27T09:46:59;6.55;;;3.03;;
52854;SDS011;38719;51.418;7.286;2022-08-27T09:49:29;9.40;;;3.13;;
52854;SDS011;38719;51.418;7.286;2022-08-27T09:52:01;4.32;;;2.50;;
52854;SDS011;38719;51.418;7.286;2022-08-27T09:54:31;7.72;;;2.95;;
52854;SDS011;38719;51.418;7.286;2022-08-27T09:57:05;6.68;;;2.60;;
52854;SDS011;38719;51.418;7.286;2022-08-27T09:59:35;8.45;;;2.58;;
52854;SDS011;38719;51.418;7.286;2022-08-27T10:02:06;7.05;;;2.42;;
52854;SDS011;38719;51.418;7.286;2022-08-27T10:04:41;7.75;;;2.97;;
52854;SDS011;38719;51.418;7.286;2022-08-27T10:07:23;5.95;;;3.13;;
52854;SDS011;38719;51.418;7.286;2022-08-27T10:09:59;7.35;;;2.80;;
52854;SDS011;38719;51.418;7.286;2022-08-27T10:12:32;9.52;;;2.95;;
52854;SDS011;38719;51.418;7.286;2022-08-27T10:15:05;6.53;;;2.47;;
52854;SDS011;38719;51.418;7.286;2022-08-27T10:17:44;8.88;;;3.10;;
52854;SDS011;38719;51.418;7.286;2022-08-27T10:20:17;8.88;;;2.72;;
52854;SDS011;38719;51.418;7.286;2022-08-27T10:22:58;3.70;;;2.55;;
52854;SDS011;38719;51.418;7.286;2022-08-27T10:25:35;5.20;;;2.60;;
52854;SDS011;38719;51.418;7.286;2022-08-27T10:28:18;8.55;;;2.90;;
52854;SDS011;38719;51.418;7.286;2022-08-27T10:30:57;8.68;;;2.95;;
52854;SDS011;38719;51.418;7.286;2022-08-27T10:33:47;8.00;;;2.80;;
52854;SDS011;38719;51.418;7.286;2022-08-27T10:36:31;8.93;;;2.65;;
52854;SDS011;38719;51.418;7.286;2022-08-27T10:39:12;8.80;;;2.38;;
52854;SDS011;38719;51.418;7.286;2022-08-27T10:41:51;6.53;;;2.80;;
52854;SDS011;38719;51.418;7.286;2022-08-27T10:44:41;5.72;;;2.60;;
52854;SDS011;38719;51.418;7.286;2022-08-27T10:47:21;5.97;;;2.95;;
52854;SDS011;38719;51.418;7.286;2022-08-27T10:49:57;13.35;;;2.88;;
52854;SDS011;38719;51.418;7.286;2022-08-27T10:52:33;5.75;;;2.60;;
52854;SDS011;38719;51.418;7.286;2022-08-27T10:55:10;12.10;;;2.60;;
52854;SDS011;38719;51.418;7.286;2022-08-27T10:57:44;4.90;;;2.47;;
52854;SDS011;38719;51.418;7.286;2022-08-27T11:00:31;5.90;;;2.65;;
52854;SDS011;38719;51.418;7.286;2022-08-27T11:03:07;9.65;;;2.30;;
52854;SDS011;38719;51.418;7.286;2022-08-27T11:05:40;9.02;;;2.70;;
52854;SDS011;38719;51.418;7.286;2022-08-27T11:08:12;6.57;;;2.83;;
52854;SDS011;38719;51.418;7.286;2022-08-27T11:10:47;5.15;;;2.60;;
52854;SDS011;38719;51.418;7.286;2022-08-27T11:13:20;10.00;;;2.28;;
52854;SDS011;38719;51.418;7.286;2022-08-27T11:15:56;5.90;;;2.53;;
52854;SDS011;38719;51.418;7.286;2022-08-27T11:18:33;6.70;;;2.53;;
52854;SDS011;38719;51.418;7.286;2022-08-27T11:21:09;8.32;;;2.60;;
52854;SDS011;38719;51.418;7.286;2022-08-27T11:23:44;5.90;;;2.30;;
52854;SDS011;38719;51.418;7.286;2022-08-27T11:26:15;5.45;;;2.50;;
52854;SDS011;38719;51.418;7.286;2022-08-27T11:28:45;3.67;;;2.10;;
52854;SDS011;38719;51.418;7.286;2022-08-27T11:31:18;7.10;;;2.75;;
52854;SDS011;38719;51.418;7.286;2022-08-27T11:33:52;4.80;;;2.67;;
52854;SDS011;38719;51.418;7.286;2022-08-27T11:36:38;8.50;;;2.50;;
52854;SDS011;38719;51.418;7.286;2022-08-27T11:39:26;9.43;;;2.65;;
52854;SDS011;38719;51.418;7.286;2022-08-27T11:42:10;4.38;;;2.33;;
52854;SDS011;38719;51.418;7.286;2022-08-27T11:44:44;6.95;;;2.75;;
52854;SDS011;38719;51.418;7.286;2022-08-27T11:47:18;5.03;;;2.55;;
52854;SDS011;38719;51.418;7.286;2022-08-27T11:49:50;6.18;;;2.58;;
52854;SDS011;38719;51.418;7.286;2022-08-27T11:52:21;6.57;;;2.28;;
52854;SDS011;38719;51.418;7.286;2022-08-27T11:54:55;3.95;;;1.90;;
52854;SDS011;38719;51.418;7.286;2022-08-27T11:57:36;4.63;;;2.28;;
52854;SDS011;38719;51.418;7.286;2022-08-27T12:00:16;6.88;;;2.50;;
52854;SDS011;38719;51.418;7.286;2022-08-27T12:02:55;5.97;;;2.75;;
52854;SDS011;38719;51.418;7.286;2022-08-27T12:05:33;3.65;;;2.17;;
52854;SDS011;38719;51.418;7.286;2022-08-27T12:08:12;5.00;;;3.00;;
52854;SDS011;38719;51.418;7.286;2022-08-27T12:10:50;6.47;;;2.88;;
52854;SDS011;38719;51.418;7.286;2022-08-27T12:13:31;5.82;;;3.42;;
52854;SDS011;38719;51.418;7.286;2022-08-27T12:16:08;6.30;;;2.70;;
52854;SDS011;38719;51.418;7.286;2022-08-27T12:18:47;7.22;;;3.60;;
52854;SDS011;38719;51.418;7.286;2022-08-27T12:21:25;6.35;;;2.45;;
52854;SDS011;38719;51.418;7.286;2022-08-27T12:24:04;5.35;;;2.35;;
52854;SDS011;38719;51.418;7.286;2022-08-27T12:26:52;4.70;;;3.13;;
52854;SDS011;38719;51.418;7.286;2022-08-27T12:29:27;4.30;;;2.10;;
52854;SDS011;38719;51.418;7.286;2022-08-27T12:32:16;5.85;;;2.40;;
52854;SDS011;38719;51.418;7.286;2022-08-27T12:34:53;6.45;;;3.20;;
52854;SDS011;38719;51.418;7.286;2022-08-27T12:37:29;5.18;;;2.25;;
52854;SDS011;38719;51.418;7.286;2022-08-27T12:40:00;4.97;;;1.92;;
52854;SDS011;38719;51.418;7.286;2022-08-27T12:42:35;3.42;;;1.90;;
52854;SDS011;38719;51.418;7.286;2022-08-27T12:45:04;7.57;;;2.45;;
52854;SDS011;38719;51.418;7.286;2022-08-27T12:47:33;8.07;;;2.45;;
52854;SDS011;38719;51.418;7.286;2022-08-27T12:50:19;6.50;;;2.20;;
52854;SDS011;38719;51.418;7.286;2022-08-27T12:53:05;5.73;;;2.10;;
52854;SDS011;38719;51.418;7.286;2022-08-27T12:55:47;4.53;;;2.20;;
52854;SDS011;38719;51.418;7.286;2022-08-27T12:58:29;6.63;;;2.10;;
52854;SDS011;38719;51.418;7.286;2022-08-27T13:01:14;5.03;;;2.38;;
52854;SDS011;38719;51.418;7.286;2022-08-27T13:03:52;6.33;;;2.30;;
52854;SDS011;38719;51.418;7.286;2022-08-27T13:06:25;4.53;;;2.25;;
52854;SDS011;38719;51.418;7.286;2022-08-27T13:08:55;4.15;;;1.98;;
52854;SDS011;38719;51.418;7.286;2022-08-27T13:11:26;6.13;;;2.50;;
52854;SDS011;38719;51.418;7.286;2022-08-27T13:14:03;3.70;;;1.83;;
52854;SDS011;38719;51.418;7.286;2022-08-27T13:16:36;8.63;;;2.30;;
52854;SDS011;38719;51.418;7.286;2022-08-27T13:19:05;3.92;;;2.00;;
52854;SDS011;38719;51.418;7.286;2022-08-27T13:21:33;7.18;;;2.22;;
52854;SDS011;38719;51.418;7.286;2022-08-27T13:24:02;3.42;;;2.05;;
52854;SDS011;38719;51.418;7.286;2022-08-27T13:26:32;5.10;;;2.20;;
52854;SDS011;38719;51.418;7.286;2022-08-27T13:29:02;4.63;;;2.10;;
52854;SDS011;38719;51.418;7.286;2022-08-27T13:31:32;6.07;;;1.90;;
52854;SDS011;38719;51.418;7.286;2022-08-27T13:34:03;6.32;;;2.20;;
52854;SDS011;38719;51.418;7.286;2022-08-27T13:36:33;4.57;;;2.08;;
52854;SDS011;38719;51.418;7.286;2022-08-27T13:39:03;5.32;;;2.10;;
52854;SDS011;38719;51.418;7.286;2022-08-27T13:41:34;6.28;;;2.47;;
52854;SDS011;38719;51.418;7.286;2022-08-27T13:44:07;3.60;;;1.90;;
52854;SDS011;38719;51.418;7.286;2022-08-27T13:46:41;3.97;;;2.13;;
52854;SDS011;38719;51.418;7.286;2022-08-27T13:49:14;3.83;;;2.40;;
52854;SDS011;38719;51.418;7.286;2022-08-27T13:54:16;6.78;;;2.28;;
52854;SDS011;38719;51.418;7.286;2022-08-27T13:56:54;8.23;;;2.45;;
52854;SDS011;38719;51.418;7.286;2022-08-27T13:59:28;2.40;;;2.10;;
52854;SDS011;38719;51.418;7.286;2022-08-27T14:01:57;5.78;;;2.50;;
52854;SDS011;38719;51.418;7.286;2022-08-27T14:04:35;3.70;;;2.00;;
52854;SDS011;38719;51.418;7.286;2022-08-27T14:07:08;5.30;;;2.30;;
52854;SDS011;38719;51.418;7.286;2022-08-27T14:09:42;7.95;;;2.20;;
52854;SDS011;38719;51.418;7.286;2022-08-27T14:12:23;2.47;;;2.03;;
52854;SDS011;38719;51.418;7.286;2022-08-27T14:14:58;4.65;;;2.33;;
52854;SDS011;38719;51.418;7.286;2022-08-27T14:17:47;5.22;;;2.20;;
52854;SDS011;38719;51.418;7.286;2022-08-27T14:20:17;4.72;;;2.28;;
52854;SDS011;38719;51.418;7.286;2022-08-27T14:22:46;3.05;;;1.70;;
52854;SDS011;38719;51.418;7.286;2022-08-27T14:25:14;4.50;;;2.08;;
52854;SDS011;38719;51.418;7.286;2022-08-27T14:27:47;3.63;;;2.17;;
52854;SDS011;38719;51.418;7.286;2022-08-27T14:30:24;5.63;;;2.33;;
52854;SDS011;38719;51.418;7.286;2022-08-27T14:32:55;5.65;;;2.20;;
52854;SDS011;38719;51.418;7.286;2022-08-27T14:35:25;6.82;;;2.33;;
52854;SDS011;38719;51.418;7.286;2022-08-27T14:37:53;7.60;;;1.95;;
52854;SDS011;38719;51.418;7.286;2022-08-27T14:40:21;5.95;;;2.40;;
52854;SDS011;38719;51.418;7.286;2022-08-27T14:42:49;4.78;;;2.13;;
52854;SDS011;38719;51.418;7.286;2022-08-27T14:45:16;3.92;;;2.30;;
52854;SDS011;38719;51.418;7.286;2022-08-27T14:47:44;5.75;;;2.33;;
52854;SDS011;38719;51.418;7.286;2022-08-27T14:50:12;4.88;;;2.13;;
52854;SDS011;38719;51.418;7.286;2022-08-27T14:52:41;4.95;;;2.17;;
52854;SDS011;38719;51.418;7.286;2022-08-27T14:55:09;5.57;;;2.55;;
52854;SDS011;38719;51.418;7.286;2022-08-27T14:57:39;4.13;;;2.08;;
52854;SDS011;38719;51.418;7.286;2022-08-27T15:00:07;6.72;;;2.00;;
52854;SDS011;38719;51.418;7.286;2022-08-27T15:02:37;5.43;;;2.00;;
52854;SDS011;38719;51.418;7.286;2022-08-27T15:05:13;4.43;;;2.17;;
52854;SDS011;38719;51.418;7.286;2022-08-27T15:07:43;3.97;;;2.15;;
52854;SDS011;38719;51.418;7.286;2022-08-27T15:10:12;8.48;;;2.20;;
52854;SDS011;38719;51.418;7.286;2022-08-27T15:12:40;4.63;;;2.72;;
52854;SDS011;38719;51.418;7.286;2022-08-27T15:15:09;5.63;;;2.55;;
52854;SDS011;38719;51.418;7.286;2022-08-27T15:17:37;7.10;;;3.45;;